createdAt,value
2019-02-11T00:00:40.695Z,4.45
2019-02-11T00:03:09.240Z,4.46
2019-02-11T00:05:37.550Z,4.49
2019-02-11T00:08:05.831Z,4.55
2019-02-11T00:10:34.128Z,4.59
2019-02-11T00:13:10.186Z,4.57
2019-02-11T00:15:32.409Z,4.56
2019-02-11T00:18:00.720Z,4.61
2019-02-11T00:20:28.999Z,4.65
2019-02-11T00:22:57.639Z,4.66
2019-02-11T00:25:25.937Z,4.73
2019-02-11T00:27:54.227Z,4.75
2019-02-11T00:30:22.520Z,4.75
2019-02-11T00:32:50.858Z,4.74
2019-02-11T00:35:19.180Z,4.81
2019-02-11T00:37:47.712Z,4.85
2019-02-11T00:40:16.040Z,4.86
2019-02-11T00:42:44.354Z,4.87
2019-02-11T00:45:12.641Z,4.88
2019-02-11T00:47:40.951Z,4.89
2019-02-11T00:50:11.220Z,4.90
2019-02-11T00:52:39.533Z,4.92
2019-02-11T00:55:07.886Z,4.90
2019-02-11T00:57:36.178Z,4.92
2019-02-11T01:00:06.980Z,5.00
2019-02-11T01:02:35.269Z,5.07
2019-02-11T01:05:03.954Z,5.16
2019-02-11T01:07:32.232Z,5.16
2019-02-11T01:10:00.543Z,5.09
2019-02-11T01:12:28.832Z,5.13
2019-02-11T01:14:57.156Z,5.16
2019-02-11T01:17:25.435Z,5.13
2019-02-11T01:19:53.738Z,5.05
2019-02-11T01:22:22.037Z,5.12
2019-02-11T01:24:50.339Z,5.09
2019-02-11T01:27:18.632Z,5.10
2019-02-11T01:29:46.926Z,5.16
2019-02-11T01:32:15.521Z,5.24
2019-02-11T01:34:43.838Z,5.20
2019-02-11T01:37:12.482Z,5.27
2019-02-11T01:39:40.766Z,5.32
2019-02-11T01:42:09.108Z,5.33
2019-02-11T01:44:37.389Z,5.35
2019-02-11T01:47:05.703Z,5.40
2019-02-11T01:49:34.896Z,5.37
2019-02-11T01:52:03.213Z,5.33
2019-02-11T01:54:31.526Z,5.34
2019-02-11T01:56:59.828Z,5.33
2019-02-11T01:59:28.134Z,5.31
2019-02-11T02:01:56.436Z,5.34
2019-02-11T02:04:24.741Z,5.37
2019-02-11T02:06:53.020Z,5.40
2019-02-11T02:09:21.330Z,5.46
2019-02-11T02:11:49.633Z,5.52
2019-02-11T02:14:17.942Z,5.49
2019-02-11T02:16:46.536Z,5.44
2019-02-11T02:19:15.128Z,5.46
2019-02-11T02:21:43.426Z,5.51
2019-02-11T02:24:11.714Z,5.57
2019-02-11T02:26:40.028Z,5.61
2019-02-11T02:29:08.306Z,5.62
2019-02-11T02:31:36.619Z,5.59
2019-02-11T02:34:04.928Z,5.55
2019-02-11T02:36:33.261Z,5.57
2019-02-11T02:39:01.554Z,5.58
2019-02-11T02:41:29.867Z,5.57
2019-02-11T02:43:58.399Z,5.60
2019-02-11T02:46:26.969Z,5.65
2019-02-11T02:48:55.562Z,5.65
2019-02-11T02:51:23.867Z,5.71
2019-02-11T02:53:52.532Z,5.69
2019-02-11T02:56:20.840Z,5.72
2019-02-11T02:58:49.131Z,5.75
2019-02-11T03:01:17.417Z,5.70
2019-02-11T03:03:45.730Z,5.67
2019-02-11T03:06:14.039Z,5.68
2019-02-11T03:08:42.698Z,5.68
2019-02-11T03:11:10.989Z,5.67
2019-02-11T03:13:39.335Z,5.67
2019-02-11T03:16:07.643Z,5.63
2019-02-11T03:18:35.945Z,5.63
2019-02-11T03:21:04.247Z,5.63
2019-02-11T03:23:32.538Z,5.57
2019-02-11T03:26:01.134Z,5.52
2019-02-11T03:28:29.739Z,5.51
2019-02-11T03:30:58.062Z,5.53
2019-02-11T03:33:26.352Z,5.58
2019-02-11T03:35:54.679Z,5.58
2019-02-11T03:38:22.981Z,5.56
2019-02-11T03:40:51.300Z,5.57
2019-02-11T03:43:19.605Z,5.53
2019-02-11T03:45:47.900Z,5.55
2019-02-11T03:48:16.219Z,5.57
2019-02-11T03:50:44.505Z,5.57
2019-02-11T03:53:12.828Z,5.59
2019-02-11T03:55:41.144Z,5.55
2019-02-11T03:58:09.461Z,5.57
2019-02-11T04:00:38.443Z,5.57
2019-02-11T04:03:06.757Z,5.56
2019-02-11T04:05:35.399Z,5.52
2019-02-11T04:08:04.082Z,5.54
2019-02-11T04:10:32.394Z,5.58
2019-02-11T04:13:00.718Z,5.57
2019-02-11T04:15:29.068Z,5.56
2019-02-11T04:17:57.388Z,5.59
2019-02-11T04:20:25.988Z,5.59
2019-02-11T04:22:54.294Z,5.57
2019-02-11T04:25:22.605Z,5.61
2019-02-11T04:27:50.902Z,5.60
2019-02-11T04:30:19.197Z,5.61
2019-02-11T04:32:47.507Z,5.63
2019-02-11T04:35:15.829Z,5.60
2019-02-11T04:37:44.129Z,5.62
2019-02-11T04:40:13.324Z,5.65
2019-02-11T04:42:41.898Z,5.61
2019-02-11T04:45:11.066Z,5.61
2019-02-11T04:47:39.327Z,5.63
2019-02-11T04:50:09.370Z,5.61
2019-02-11T04:52:37.657Z,5.65
2019-02-11T04:55:08.313Z,5.61
2019-02-11T04:57:36.882Z,5.62
2019-02-11T05:00:10.879Z,5.65
2019-02-11T05:02:39.479Z,5.68
2019-02-11T05:05:09.584Z,5.66
2019-02-11T05:07:37.871Z,5.65
2019-02-11T05:10:11.919Z,5.66
2019-02-11T05:12:40.218Z,5.65
2019-02-11T05:15:10.481Z,5.65
2019-02-11T05:17:38.780Z,5.61
2019-02-11T05:20:11.288Z,5.59
2019-02-11T05:22:39.742Z,5.60
2019-02-11T05:25:08.705Z,5.56
2019-02-11T05:27:36.977Z,5.48
2019-02-11T05:30:08.540Z,5.41
2019-02-11T05:32:36.841Z,5.37
2019-02-11T05:35:06.635Z,5.32
2019-02-11T05:37:35.107Z,5.31
2019-02-11T05:40:04.438Z,5.27
2019-02-11T05:42:32.720Z,5.19
2019-02-11T05:45:01.053Z,5.08
2019-02-11T05:47:29.329Z,5.06
2019-02-11T05:49:57.652Z,5.03
2019-02-11T05:52:25.934Z,4.94
2019-02-11T05:54:54.255Z,4.84
2019-02-11T05:57:22.554Z,4.87
2019-02-11T05:59:51.118Z,4.91
2019-02-11T06:02:21.059Z,4.95
2019-02-11T06:04:49.380Z,4.96
2019-02-11T06:07:17.690Z,4.94
2019-02-11T06:09:45.997Z,4.86
2019-02-11T06:12:14.295Z,4.80
2019-02-11T06:14:42.673Z,4.77
2019-02-11T06:17:10.966Z,4.87
2019-02-11T06:19:39.303Z,4.99
2019-02-11T06:22:07.592Z,5.13
2019-02-11T06:24:35.909Z,5.16
2019-02-11T06:27:04.225Z,5.16
2019-02-11T06:29:32.553Z,5.10
2019-02-11T06:32:00.841Z,5.07
2019-02-11T06:34:29.160Z,5.08
2019-02-11T06:36:57.446Z,5.09
2019-02-11T06:39:25.801Z,5.05
2019-02-11T06:41:54.087Z,5.07
2019-02-11T06:44:22.399Z,5.04
2019-02-11T06:46:50.699Z,5.10
2019-02-11T06:49:19.022Z,5.10
2019-02-11T06:51:47.320Z,5.14
2019-02-11T06:54:15.669Z,5.16
2019-02-11T06:56:43.932Z,5.17
2019-02-11T06:59:12.517Z,5.14
2019-02-11T07:01:40.813Z,5.16
2019-02-11T07:04:09.108Z,5.20
2019-02-11T07:06:37.432Z,5.24
2019-02-11T07:09:06.282Z,5.26
2019-02-11T07:11:34.695Z,5.33
2019-02-11T07:14:02.979Z,5.36
2019-02-11T07:16:31.302Z,5.39
2019-02-11T07:18:59.599Z,5.45
2019-02-11T07:21:28.213Z,5.50
2019-02-11T07:23:56.814Z,5.52
2019-02-11T07:26:25.412Z,5.46
2019-02-11T07:28:53.983Z,5.43
2019-02-11T07:31:22.588Z,5.47
2019-02-11T07:33:51.154Z,5.51
2019-02-11T07:36:19.465Z,5.56
2019-02-11T07:38:47.751Z,5.60
2019-02-11T07:41:16.060Z,5.61
2019-02-11T07:43:45.989Z,5.55
2019-02-11T07:46:15.934Z,5.58
2019-02-11T07:48:44.224Z,5.65
2019-02-11T07:51:12.534Z,5.71
2019-02-11T07:53:40.837Z,5.76
2019-02-11T07:56:09.181Z,5.74
2019-02-11T07:58:37.813Z,5.82
2019-02-11T08:01:06.131Z,5.89
2019-02-11T08:03:34.526Z,5.86
2019-02-11T08:06:03.246Z,5.89
2019-02-11T08:08:33.107Z,5.89
2019-02-11T08:11:01.515Z,5.97
2019-02-11T08:13:30.130Z,5.98
2019-02-11T08:15:58.441Z,5.99
2019-02-11T08:18:26.784Z,5.97
2019-02-11T08:20:55.133Z,5.97
2019-02-11T08:23:23.491Z,6.04
2019-02-11T08:25:51.806Z,6.05
2019-02-11T08:28:20.107Z,5.94
2019-02-11T08:30:48.479Z,5.90
2019-02-11T08:33:16.781Z,5.79
2019-02-11T08:35:45.082Z,5.80
2019-02-11T08:38:13.394Z,5.86
2019-02-11T08:40:41.690Z,5.91
2019-02-11T08:43:10.029Z,5.94
2019-02-11T08:45:46.624Z,6.02
2019-02-11T08:48:08.735Z,5.99
2019-02-11T08:50:37.341Z,5.99
2019-02-11T08:53:05.930Z,6.05
2019-02-11T08:55:34.244Z,5.97
2019-02-11T08:58:02.554Z,6.11
2019-02-11T09:00:30.862Z,6.13
2019-02-11T09:02:59.442Z,6.18
2019-02-11T09:05:27.745Z,6.23
2019-02-11T09:07:56.345Z,6.31
2019-02-11T09:10:25.002Z,6.28
2019-02-11T09:12:53.320Z,6.25
2019-02-11T09:15:21.603Z,6.30
2019-02-11T09:17:50.183Z,6.36
2019-02-11T09:20:18.606Z,6.34
2019-02-11T09:22:46.936Z,6.29
2019-02-11T09:25:15.290Z,6.29
2019-02-11T09:27:43.608Z,6.29
2019-02-11T09:30:14.771Z,6.29
2019-02-11T09:32:43.212Z,6.30
2019-02-11T09:35:11.466Z,6.26
2019-02-11T09:37:40.126Z,6.23
2019-02-11T09:40:11.830Z,6.29
2019-02-11T09:42:40.135Z,6.34
2019-02-11T09:45:12.025Z,6.44
2019-02-11T09:47:40.645Z,6.41
2019-02-11T09:50:17.795Z,6.44
2019-02-11T09:52:46.377Z,6.44
2019-02-11T09:55:18.331Z,6.34
2019-02-11T09:57:46.617Z,6.33
2019-02-11T10:00:15.194Z,6.38
2019-02-11T10:02:43.597Z,6.37
2019-02-11T10:05:12.258Z,6.31
2019-02-11T10:07:40.552Z,6.31
2019-02-11T10:10:10.315Z,6.31
2019-02-11T10:12:38.602Z,6.34
2019-02-11T10:15:10.105Z,6.36
2019-02-11T10:17:38.479Z,6.34
2019-02-11T10:20:14.191Z,6.39
2019-02-11T10:22:42.487Z,6.47
2019-02-11T10:25:25.766Z,6.41
2019-02-11T10:27:56.941Z,6.49
2019-02-11T10:30:25.418Z,6.48
2019-02-11T10:32:53.706Z,6.48
2019-02-11T10:35:22.142Z,6.53
2019-02-11T10:37:50.876Z,6.61
2019-02-11T10:40:19.168Z,6.58
2019-02-11T10:42:47.486Z,6.63
2019-02-11T10:45:15.846Z,6.74
2019-02-11T10:47:45.800Z,6.82
2019-02-11T10:50:17.193Z,7.08
2019-02-11T10:52:45.555Z,7.22
2019-02-11T10:55:16.549Z,7.13
2019-02-11T10:57:45.215Z,7.07
2019-02-11T11:00:16.218Z,7.03
2019-02-11T11:02:44.905Z,6.92
2019-02-11T11:05:14.132Z,6.82
2019-02-11T11:07:42.678Z,6.96
2019-02-11T11:10:16.721Z,7.12
2019-02-11T11:12:45.066Z,7.23
2019-02-11T11:15:13.370Z,7.41
2019-02-11T11:17:41.740Z,7.40
2019-02-11T11:20:15.207Z,7.43
2019-02-11T11:22:43.510Z,7.69
2019-02-11T11:25:12.267Z,7.92
2019-02-11T11:27:40.568Z,7.95
2019-02-11T11:30:11.979Z,7.74
2019-02-11T11:32:40.446Z,7.64
2019-02-11T11:35:10.049Z,7.67
2019-02-11T11:37:38.335Z,7.64
2019-02-11T11:40:09.879Z,7.49
2019-02-11T11:42:38.200Z,7.50
2019-02-11T11:45:10.275Z,7.57
2019-02-11T11:47:38.593Z,7.53
2019-02-11T11:50:08.339Z,7.60
2019-02-11T11:52:36.675Z,7.52
2019-02-11T11:55:08.106Z,7.52
2019-02-11T11:57:36.458Z,7.64
2019-02-11T12:00:13.473Z,7.87
2019-02-11T12:02:59.498Z,8.07
2019-02-11T12:05:11.978Z,8.09
2019-02-11T12:07:40.299Z,8.17
2019-02-11T12:10:09.826Z,8.28
2019-02-11T12:12:38.645Z,8.34
2019-02-11T12:15:09.978Z,8.54
2019-02-11T12:17:38.414Z,8.73
2019-02-11T12:20:10.025Z,8.89
2019-02-11T12:22:38.311Z,8.95
2019-02-11T12:25:09.543Z,8.91
2019-02-11T12:27:37.840Z,8.85
2019-02-11T12:30:09.349Z,8.84
2019-02-11T12:32:37.655Z,8.71
2019-02-11T12:35:09.020Z,8.02
2019-02-11T12:37:37.320Z,5.87
2019-02-11T12:40:07.772Z,4.47
2019-02-11T12:42:36.068Z,3.84
2019-02-11T12:45:06.581Z,3.91
2019-02-11T12:47:34.893Z,4.14
2019-02-11T12:50:03.663Z,4.38
2019-02-11T12:52:31.969Z,4.63
2019-02-11T12:55:00.523Z,4.74
2019-02-11T12:57:28.950Z,4.78
2019-02-11T12:59:57.221Z,4.85
2019-02-11T13:02:25.533Z,4.93
2019-02-11T13:04:54.129Z,4.94
2019-02-11T13:07:22.436Z,5.00
2019-02-11T13:09:50.722Z,5.09
2019-02-11T13:12:19.051Z,5.16
2019-02-11T13:14:47.358Z,5.27
2019-02-11T13:17:32.227Z,5.41
2019-02-11T13:19:45.916Z,5.49
2019-02-11T13:22:14.396Z,5.60
2019-02-11T13:24:42.693Z,5.78
2019-02-11T13:27:11.100Z,5.96
2019-02-11T13:29:39.693Z,6.11
2019-02-11T13:32:10.602Z,6.29
2019-02-11T13:34:38.016Z,6.54
2019-02-11T13:37:06.298Z,6.65
2019-02-11T13:39:34.650Z,6.70
2019-02-11T13:42:02.972Z,6.73
2019-02-11T13:44:31.292Z,6.53
2019-02-11T13:46:59.576Z,6.21
2019-02-11T13:49:27.861Z,6.01
2019-02-11T13:51:56.440Z,5.97
2019-02-11T13:54:24.733Z,6.00
2019-02-11T13:56:53.102Z,6.10
2019-02-11T13:59:21.398Z,6.12
2019-02-11T14:01:49.870Z,6.15
2019-02-11T14:04:18.260Z,6.15
2019-02-11T14:06:46.556Z,6.09
2019-02-11T14:09:14.852Z,6.03
2019-02-11T14:11:43.149Z,5.96
2019-02-11T14:14:11.488Z,5.91
2019-02-11T14:16:39.758Z,5.86
2019-02-11T14:19:08.354Z,5.90
2019-02-11T14:21:36.660Z,5.96
2019-02-11T14:24:04.996Z,5.96
2019-02-11T14:26:33.290Z,5.98
2019-02-11T14:29:01.599Z,5.99
2019-02-11T14:31:31.210Z,6.08
2019-02-11T14:33:59.653Z,6.08
2019-02-11T14:36:27.966Z,6.09
2019-02-11T14:38:56.270Z,6.12
2019-02-11T14:41:24.560Z,6.17
2019-02-11T14:43:52.845Z,6.31
2019-02-11T14:46:21.464Z,6.50
2019-02-11T14:48:49.745Z,6.60
2019-02-11T14:51:18.414Z,6.53
2019-02-11T14:53:46.713Z,6.27
2019-02-11T14:56:15.361Z,6.07
2019-02-11T14:58:43.675Z,6.02
2019-02-11T15:01:11.990Z,5.99
2019-02-11T15:03:40.421Z,5.94
2019-02-11T15:06:08.739Z,5.83
2019-02-11T15:08:37.025Z,5.83
2019-02-11T15:11:05.667Z,5.84
2019-02-11T15:13:34.423Z,5.84
2019-02-11T15:16:02.712Z,5.88
2019-02-11T15:18:34.264Z,5.88
2019-02-11T15:21:01.434Z,5.86
2019-02-11T15:23:29.735Z,5.87
2019-02-11T15:25:58.535Z,5.91
2019-02-11T15:28:26.869Z,5.95
2019-02-11T15:30:55.416Z,5.98
2019-02-11T15:33:24.037Z,6.01
2019-02-11T15:35:52.604Z,6.03
2019-02-11T15:38:20.913Z,6.05
2019-02-11T15:40:49.211Z,6.06
2019-02-11T15:43:17.514Z,6.10
2019-02-11T15:45:45.856Z,6.11
2019-02-11T15:48:14.493Z,6.10
2019-02-11T15:50:43.044Z,6.09
2019-02-11T15:53:11.352Z,6.03
2019-02-11T15:55:39.929Z,6.02
2019-02-11T15:58:08.244Z,6.01
2019-02-11T16:00:36.638Z,6.05
2019-02-11T16:03:05.273Z,6.11
2019-02-11T16:05:33.825Z,6.14
2019-02-11T16:08:02.153Z,6.17
2019-02-11T16:10:30.430Z,6.21
2019-02-11T16:12:58.758Z,6.20
2019-02-11T16:15:27.074Z,6.16
2019-02-11T16:17:55.656Z,6.10
2019-02-11T16:20:24.248Z,6.06
2019-02-11T16:22:52.551Z,6.06
2019-02-11T16:25:20.839Z,6.06
2019-02-11T16:27:49.490Z,6.12
2019-02-11T16:30:20.279Z,6.16
2019-02-11T16:32:48.656Z,6.20
2019-02-11T16:35:18.014Z,6.23
2019-02-11T16:37:46.479Z,6.23
2019-02-11T16:40:21.118Z,6.26
2019-02-11T16:42:49.407Z,6.26
2019-02-11T16:45:17.710Z,6.21
2019-02-11T16:47:46.001Z,6.08
2019-02-11T16:50:14.828Z,5.85
2019-02-11T16:52:43.131Z,5.66
2019-02-11T16:55:12.336Z,5.51
2019-02-11T16:57:40.609Z,5.39
2019-02-11T17:00:17.959Z,5.27
2019-02-11T17:02:46.409Z,5.21
2019-02-11T17:05:14.942Z,5.20
2019-02-11T17:07:43.251Z,5.24
2019-02-11T17:10:13.059Z,5.21
2019-02-11T17:12:41.375Z,5.23
2019-02-11T17:15:11.812Z,5.24
2019-02-11T17:17:40.119Z,5.25
2019-02-11T17:20:10.754Z,5.27
2019-02-11T17:22:39.070Z,5.32
2019-02-11T17:25:09.501Z,5.30
2019-02-11T17:27:37.828Z,5.29
2019-02-11T17:30:09.399Z,5.26
2019-02-11T17:32:37.716Z,5.18
2019-02-11T17:35:08.344Z,5.12
2019-02-11T17:37:39.846Z,5.08
2019-02-11T17:40:11.848Z,5.04
2019-02-11T17:42:40.196Z,4.99
2019-02-11T17:45:14.234Z,4.96
2019-02-11T17:47:42.797Z,4.91
2019-02-11T17:50:11.710Z,4.89
2019-02-11T17:52:40.317Z,4.85
2019-02-11T17:55:13.943Z,4.82
2019-02-11T17:57:42.514Z,4.80
2019-02-11T18:00:24.704Z,4.73
2019-02-11T18:02:53.001Z,4.68
2019-02-11T18:05:21.566Z,4.64
2019-02-11T18:07:50.154Z,4.63
2019-02-11T18:10:18.474Z,4.61
2019-02-11T18:12:46.933Z,4.59
2019-02-11T18:15:15.284Z,4.55
2019-02-11T18:17:43.579Z,4.50
2019-02-11T18:20:11.966Z,4.50
2019-02-11T18:22:40.248Z,4.48
2019-02-11T18:25:09.824Z,4.47
2019-02-11T18:27:38.138Z,4.44
2019-02-11T18:30:10.722Z,4.37
2019-02-11T18:32:39.041Z,4.33
2019-02-11T18:35:10.284Z,4.26
2019-02-11T18:37:38.614Z,4.21
2019-02-11T18:40:09.754Z,4.18
2019-02-11T18:42:38.074Z,4.15
2019-02-11T18:45:11.698Z,4.11
2019-02-11T18:47:40.299Z,4.09
2019-02-11T18:50:11.434Z,4.08
2019-02-11T18:52:39.736Z,4.05
2019-02-11T18:55:10.688Z,4.03
2019-02-11T18:57:39.005Z,3.99
2019-02-11T19:00:11.435Z,3.96
2019-02-11T19:02:39.913Z,3.90
2019-02-11T19:05:08.665Z,3.84
2019-02-11T19:07:36.967Z,3.82
2019-02-11T19:10:11.047Z,3.81
2019-02-11T19:12:39.352Z,3.78
2019-02-11T19:15:12.800Z,3.76
2019-02-11T19:17:41.421Z,3.73
2019-02-11T19:20:12.073Z,3.70
2019-02-11T19:22:40.363Z,3.68
2019-02-11T19:25:10.231Z,3.66
2019-02-11T19:27:38.821Z,3.65
2019-02-11T19:30:12.906Z,3.64
2019-02-11T19:32:41.257Z,3.60
2019-02-11T19:35:09.565Z,3.56
2019-02-11T19:37:37.956Z,3.52
2019-02-11T19:40:09.578Z,3.51
2019-02-11T19:42:38.212Z,3.48
2019-02-11T19:45:09.920Z,3.45
2019-02-11T19:47:38.387Z,3.41
2019-02-11T19:50:12.215Z,3.39
2019-02-11T19:52:40.862Z,3.37
2019-02-11T19:55:11.034Z,3.35
2019-02-11T19:57:39.322Z,3.34
2019-02-11T20:00:11.062Z,3.33
2019-02-11T20:02:39.380Z,3.30
2019-02-11T20:05:09.233Z,3.27
2019-02-11T20:07:37.533Z,3.25
2019-02-11T20:10:09.034Z,3.24
2019-02-11T20:12:37.325Z,3.24
2019-02-11T20:15:09.058Z,3.21
2019-02-11T20:17:37.625Z,3.19
2019-02-11T20:20:09.247Z,3.20
2019-02-11T20:22:37.549Z,3.19
2019-02-11T20:25:08.307Z,3.17
2019-02-11T20:27:36.606Z,3.13
2019-02-11T20:30:10.861Z,3.13
2019-02-11T20:32:39.142Z,3.14
2019-02-11T20:35:08.100Z,3.14
2019-02-11T20:37:36.413Z,3.11
2019-02-11T20:40:14.151Z,3.04
2019-02-11T20:42:42.456Z,3.02
2019-02-11T20:45:14.059Z,3.03
2019-02-11T20:47:42.385Z,3.10
2019-02-11T20:50:12.111Z,3.15
2019-02-11T20:52:40.641Z,3.20
2019-02-11T20:55:15.165Z,3.27
2019-02-11T20:57:44.609Z,3.29
2019-02-11T21:00:26.386Z,3.33
2019-02-11T21:02:55.033Z,3.37
2019-02-11T21:05:23.971Z,3.42
2019-02-11T21:07:52.273Z,3.49
2019-02-11T21:10:24.630Z,3.53
2019-02-11T21:12:52.962Z,3.59
2019-02-11T21:15:21.321Z,3.63
2019-02-11T21:17:49.710Z,3.68
2019-02-11T21:20:27.136Z,3.71
2019-02-11T21:22:55.454Z,3.77
2019-02-11T21:25:23.756Z,3.81
2019-02-11T21:27:52.076Z,3.88
2019-02-11T21:30:20.369Z,3.94
2019-02-11T21:32:48.674Z,3.93
2019-02-11T21:35:16.961Z,3.97
2019-02-11T21:37:45.295Z,4.02
2019-02-11T21:40:13.604Z,4.05
2019-02-11T21:42:41.895Z,4.08
2019-02-11T21:45:11.946Z,4.11
2019-02-11T21:47:40.229Z,4.15
2019-02-11T21:50:11.953Z,4.18
2019-02-11T21:52:40.630Z,4.21
2019-02-11T21:55:11.682Z,4.26
2019-02-11T21:57:39.986Z,4.25
2019-02-11T22:00:11.655Z,4.23
2019-02-11T22:02:39.943Z,4.25
2019-02-11T22:05:08.638Z,4.26
2019-02-11T22:07:36.925Z,4.30
2019-02-11T22:10:08.430Z,4.34
2019-02-11T22:12:36.758Z,4.34
2019-02-11T22:15:06.365Z,4.32
2019-02-11T22:17:34.680Z,4.37
2019-02-11T22:20:02.966Z,4.43
2019-02-11T22:22:31.270Z,4.49
2019-02-11T22:24:59.816Z,4.52
2019-02-11T22:27:28.122Z,4.55
2019-02-11T22:29:56.430Z,4.55
2019-02-11T22:32:24.743Z,4.54
2019-02-11T22:34:53.027Z,4.54
2019-02-11T22:37:21.688Z,4.58
2019-02-11T22:39:49.993Z,4.56
2019-02-11T22:42:18.315Z,4.58
2019-02-11T22:44:46.623Z,4.60
2019-02-11T22:47:14.922Z,4.60
2019-02-11T22:49:43.219Z,4.63
2019-02-11T22:52:11.504Z,4.63
2019-02-11T22:54:39.823Z,4.64
2019-02-11T22:57:08.110Z,4.63
2019-02-11T22:59:36.444Z,4.55
2019-02-11T23:02:05.380Z,4.59
2019-02-11T23:04:33.944Z,4.63
2019-02-11T23:07:02.331Z,4.64
2019-02-11T23:09:30.651Z,4.68
2019-02-11T23:11:58.943Z,4.69
2019-02-11T23:14:27.257Z,4.71
2019-02-11T23:16:55.847Z,4.71
2019-02-11T23:19:24.147Z,4.67
2019-02-11T23:21:52.439Z,4.67
2019-02-11T23:24:20.739Z,4.62
2019-02-11T23:26:49.299Z,4.52
2019-02-11T23:29:17.596Z,4.49
2019-02-11T23:31:45.920Z,4.42
2019-02-11T23:34:14.219Z,4.33
2019-02-11T23:36:42.530Z,4.32
2019-02-11T23:39:12.459Z,4.32
2019-02-11T23:41:40.895Z,4.32
2019-02-11T23:44:09.183Z,4.35
2019-02-11T23:46:37.510Z,4.41
2019-02-11T23:49:05.812Z,4.47
2019-02-11T23:51:34.381Z,4.52
2019-02-11T23:54:02.705Z,4.56
2019-02-11T23:56:32.525Z,4.58
2019-02-11T23:59:00.861Z,4.59
